Meteo Giornale » Osservazioni meteo Egitto » Cairo

ore: 01:30 - Osservazioni Meteo Cairo
Lat. 30° 8' N Lon. 31° 24' E Alt. 64 metri s.l.m.

sereno Africa/Cairo

27 °C

Sereno

Temp. 24 Ore

25 °C

35 °C

Nord/Nord-Est

7.4 Km/h

Dew point 20 °C

Umidità 65 %

Visibilità  10 Km

Il sole sorge alle ore 04:54

Il sole tramonta alle ore 19:01

Data e Ora Cielo e Fenomeni T °C DP °C Um. % Pres. hPa Vis. km Vento km/h
Oggi h: 01:30 sereno Sereno 27 20 65 1010 10 N/NE 7.4
Oggi h: 01:00 sereno Sereno 27 20 65 1010 10 N 9.3
Oggi h: 00:30 sereno Sereno 28 19 58 1011 10 N 13
Oggi h: 00:00 sereno Sereno 28 18 54 1011 10 N 14.8
Ieri h: 23:30 sereno Sereno 29 17 48 1011 10 N 14.8
Ieri h: 23:00 sereno Sereno 29 17 48 1011 10 N 14.8
Ieri h: 22:30 sereno Sereno 29 17 48 1011 10 N 14.8
Ieri h: 22:00 sereno Sereno 30 17 45 1011 10 N 16.7
Ieri h: 21:00 sereno Sereno 31 19 48 1010 10 N 18.5
Ieri h: 20:30 sereno Sereno 32 19 46 1010 10 N 18.5
Ieri h: 20:00 sereno Sereno 32 18 43 1010 10 N 18.5
Ieri h: 19:30 sereno Sereno 33 16 36 1009 10 N 14.8
Ieri h: 19:00 sereno Sereno 33 16 36 1009 10 N 22.2
Ieri h: 18:00 sereno Sereno 34 16 34 1009 10 N/NE 13
Ieri h: 17:30 sereno Sereno 35 15 30 1009 10 N 20.3
Ieri h: 17:00 sereno Sereno 35 15 30 1009 10 N/NO 18.5
Ieri h: 16:30 sereno Sereno 35 15 30 1009 10 N/NO 20.3
Ieri h: 16:00 sereno Sereno 35 16 32 1009 10 N 24
Ieri h: 15:00 sereno Sereno 35 15 30 1009 10 N/NO 22.2
Ieri h: 14:30 sereno Sereno 35 15 30 1009 10 N 16.7
Ieri h: 14:00 sereno Sereno 35 14 28 1009 10 N/NO 13
Ieri h: 13:30 sereno Sereno 35 12 24 1009 10 NO 20.3
Ieri h: 13:00 sereno Sereno 35 12 24 1010 10 NO 18.5
Ieri h: 12:30 sereno Sereno 34 12 26 1010 10 NO 20.3
Ieri h: 12:00 sereno Sereno 34 15 32 1010 10 N/NO 16.7
Ieri h: 11:30 sereno Sereno 33 15 33 1010 10 N/NO 20.3
Ieri h: 11:00 sereno Sereno 32 17 40 1010 10 N 14.8
Ieri h: 10:30 sereno Sereno 32 16 38 1010 10 N/NE 18.5
Ieri h: 10:00 sereno Sereno 31 18 45 1010 10 N 16.7
Ieri h: 09:30 sereno Sereno 30 18 48 1011 6 N/NE 11.1
Ieri h: 09:00 sereno Sereno 29 18 51 1011 6 N 11.1
Ieri h: 08:30 sereno Sereno 28 20 61 1011 6 N 11.1
Ieri h: 08:00 sereno Sereno 27 21 69 1011 6 N 11.1
Ieri h: 07:00 foschia Foschia 26 23 83 1010 3 NE 7.4
Ieri h: 06:30 foschia Foschia 25 23 88 1010 3 N 5.5
Ieri h: 06:00 foschia Foschia 25 22 83 1010 3 N 5.5
Ieri h: 05:30 foschia Foschia 25 22 83 1010 3 N 9.3
Ieri h: 05:00 sereno Sereno 25 22 83 1010 6 N 9.3
Ieri h: 04:30 sereno Sereno 25 22 83 1010 6 N 13
Ieri h: 04:00 sereno Sereno 25 22 83 1010 6 N 13
Ieri h: 03:30 sereno Sereno 25 22 83 1010 6 N/NO 13
Ieri h: 03:00 sereno Sereno 26 22 78 1010 6 N/NO 13